Airport ID:K63S
Update Time (UTC):05/03/2024 01:43
Wind Speed (Knots):5
Wind Direction (Magnetic):10
Temperature (°C):-1
Dew Point (°C):-3
Humidity (%):86
Altimeter (inHg):29.82
Density Altitude (Feet):
Visibility:10+
Clouds (Hundreds of feet):SCT038 OVC045
Present Weather:
METAR:METAR K63S 050140Z AUTO 03007KT 10SM SCT039 OVC045 M01/M03 A2982 RMK A01

The data displayed is for advisory purposes only and is not to be used for flight planning or operations.